Time;durP1;ratioP1;P1;durP2;ratioP2;P2;SDS_P1;SDS_P2;PMS_P1;PMS_P2;Temp;Humidity;BMP_temperature;BMP_pressure;BME280_temperature;BME280_humidity;BME280_pressure;Samples;Min_cycle;Max_cycle;Signal;HPM_P1;HPM_P2
2022/11/09 00:01:21;;;;;;;0.90;0.90;;;;;;;-141.59;100.00;61776.25;5093038;28;20296;-86
2022/11/09 00:03:48;;;;;;;2.10;1.00;;;;;;;-141.59;100.00;61776.25;5075958;28;20303;-85
2022/11/09 00:06:15;;;;;;;1.47;0.83;;;;;;;-141.59;100.00;61776.25;5078813;28;20216;-86
2022/11/09 00:08:44;;;;;;;1.00;0.90;;;;;;;-141.59;100.00;61776.25;5081928;28;20253;-86
2022/11/09 00:11:11;;;;;;;1.00;1.00;;;;;;;-141.59;100.00;61776.25;5083402;28;20204;-86
2022/11/09 00:13:40;;;;;;;1.10;1.00;;;;;;;-141.59;100.00;61776.25;5082358;28;20267;-86
2022/11/09 00:16:09;;;;;;;1.10;1.07;;;;;;;-141.59;100.00;61776.25;5077313;28;20198;-86
2022/11/09 00:18:37;;;;;;;1.00;0.90;;;;;;;-141.59;100.00;61776.25;5084091;28;20240;-86
2022/11/09 00:21:09;;;;;;;1.47;1.00;;;;;;;-141.59;100.00;61776.25;5094295;28;20213;-87
2022/11/09 00:23:36;;;;;;;1.03;0.97;;;;;;;-141.59;100.00;61776.25;5087115;28;20205;-86
2022/11/09 00:26:09;;;;;;;3.73;1.33;;;;;;;-141.59;100.00;61776.25;5086937;28;20221;-86
2022/11/09 00:28:37;;;;;;;1.10;0.97;;;;;;;-141.59;100.00;61776.25;5077490;28;20204;-87
2022/11/09 00:31:11;;;;;;;0.87;0.87;;;;;;;-141.59;100.00;61776.25;5080114;28;20227;-86
2022/11/09 00:33:38;;;;;;;0.93;0.90;;;;;;;-141.59;100.00;61776.25;5080144;28;20228;-86
2022/11/09 00:36:10;;;;;;;0.90;0.90;;;;;;;-141.59;100.00;61776.25;5084599;28;20232;-86
2022/11/09 00:38:39;;;;;;;1.60;1.00;;;;;;;-141.59;100.00;61776.25;5085210;28;20201;-86
2022/11/09 00:41:10;;;;;;;1.53;1.00;;;;;;;-141.59;100.00;61776.25;5079531;28;20197;-86
2022/11/09 00:43:38;;;;;;;1.37;1.10;;;;;;;-141.59;100.00;61776.25;5079590;28;20203;-86
2022/11/09 00:46:10;;;;;;;1.00;0.90;;;;;;;-141.59;100.00;61776.25;5085829;28;20250;-86
2022/11/09 00:48:37;;;;;;;2.57;1.13;;;;;;;-141.59;100.00;61776.25;5083910;28;20220;-86
2022/11/09 00:51:08;;;;;;;0.97;0.90;;;;;;;-141.59;100.00;61776.25;5083210;28;20205;-86
2022/11/09 00:53:35;;;;;;;1.40;1.00;;;;;;;-141.59;100.00;61776.25;5090827;28;20204;-86
2022/11/09 00:56:05;;;;;;;1.00;0.90;;;;;;;-141.59;100.00;61776.25;5084983;28;20212;-86
2022/11/09 00:58:37;;;;;;;0.90;0.90;;;;;;;-141.59;100.00;61776.25;5092603;28;20286;-86
2022/11/09 01:01:09;;;;;;;1.13;0.90;;;;;;;-141.59;100.00;61776.25;5096061;28;20238;-86
2022/11/09 01:03:37;;;;;;;0.93;0.93;;;;;;;-141.59;100.00;61776.25;5088692;28;20292;-86
2022/11/09 01:06:05;;;;;;;0.93;0.93;;;;;;;-141.59;100.00;61776.25;5085895;28;20225;-86
2022/11/09 01:08:33;;;;;;;1.10;1.00;;;;;;;-141.59;100.00;61776.25;5091500;28;20208;-86
2022/11/09 01:11:06;;;;;;;1.43;1.10;;;;;;;-141.59;100.00;61776.25;5089569;28;20211;-86
2022/11/09 01:13:33;;;;;;;1.10;1.00;;;;;;;-141.59;100.00;61776.25;5086819;28;20251;-86
2022/11/09 01:16:06;;;;;;;1.03;0.93;;;;;;;-141.59;100.00;61776.25;5089068;28;20204;-86
2022/11/09 01:18:36;;;;;;;2.60;1.10;;;;;;;-141.59;100.00;61776.25;5092022;28;20220;-86
2022/11/09 01:21:09;;;;;;;0.97;0.97;;;;;;;-141.59;100.00;61776.25;5088459;28;20224;-86
2022/11/09 01:23:41;;;;;;;1.17;0.87;;;;;;;-141.59;100.00;61776.25;5101272;27;20201;-87
2022/11/09 01:26:10;;;;;;;2.57;1.10;;;;;;;-141.59;100.00;61776.25;5091910;28;20235;-86
2022/11/09 01:28:37;;;;;;;1.07;0.97;;;;;;;-141.59;100.00;61776.25;5086266;28;20190;-86
2022/11/09 01:31:08;;;;;;;1.50;1.00;;;;;;;-141.59;100.00;61776.25;5090658;28;20204;-86
2022/11/09 01:33:36;;;;;;;1.33;1.20;;;;;;;-141.59;100.00;61776.25;5092451;28;20211;-86
2022/11/09 01:36:04;;;;;;;1.10;1.00;;;;;;;-141.59;100.00;61776.25;5088470;28;20301;-86
2022/11/09 01:38:31;;;;;;;1.17;1.00;;;;;;;-141.59;100.00;61776.25;5084653;28;20200;-86
2022/11/09 01:40:59;;;;;;;1.50;1.20;;;;;;;-141.59;100.00;61776.25;5089056;28;20208;-85
2022/11/09 01:43:28;;;;;;;0.80;0.80;;;;;;;-141.59;100.00;61776.25;5084974;28;20334;-86
2022/11/09 01:45:59;;;;;;;0.90;0.90;;;;;;;-141.59;100.00;61776.25;5090156;28;20296;-85
2022/11/09 01:48:37;;;;;;;1.00;1.00;;;;;;;-141.59;100.00;61776.25;5085515;28;20251;-85
2022/11/09 01:51:09;;;;;;;0.90;0.90;;;;;;;-141.59;100.00;61776.25;5089176;28;20215;-86
2022/11/09 01:53:42;;;;;;;1.20;1.10;;;;;;;-141.59;100.00;61776.25;5090270;28;20239;-86
2022/11/09 01:56:14;;;;;;;2.20;1.03;;;;;;;-141.59;100.00;61776.25;5086604;28;20205;-86
2022/11/09 01:58:45;;;;;;;1.00;0.93;;;;;;;-141.59;100.00;61776.25;5086932;28;20217;-86
2022/11/09 02:01:14;;;;;;;1.20;1.10;;;;;;;-141.59;100.00;61776.25;5085013;28;20201;-86
2022/11/09 02:03:48;;;;;;;2.23;1.13;;;;;;;-141.59;100.00;61776.25;5084447;28;20287;-86
2022/11/09 02:06:18;;;;;;;1.10;1.00;;;;;;;-141.59;100.00;61776.25;5080525;28;20239;-86
2022/11/09 02:08:47;;;;;;;1.23;1.10;;;;;;;-141.59;100.00;61776.25;5075862;28;20233;-86
2022/11/09 02:11:19;;;;;;;1.03;0.93;;;;;;;-141.59;100.00;61776.25;5076048;28;20197;-87
2022/11/09 02:13:51;;;;;;;2.17;1.10;;;;;;;-141.59;100.00;61776.25;5083857;28;20224;-86
2022/11/09 02:16:19;;;;;;;1.30;0.90;;;;;;;-141.59;100.00;61776.25;5106897;28;20205;-86
2022/11/09 02:18:52;;;;;;;6.40;0.93;;;;;;;-141.59;100.00;61776.25;5082193;28;20303;-86
2022/11/09 02:21:22;;;;;;;2.63;1.10;;;;;;;-141.59;100.00;61776.25;5082616;28;20217;-87
2022/11/09 02:23:50;;;;;;;1.23;1.13;;;;;;;-141.59;100.00;61776.25;5086059;28;20266;-86
2022/11/09 02:26:24;;;;;;;1.07;1.00;;;;;;;-141.59;100.00;61776.25;5083329;28;20228;-85
2022/11/09 02:28:54;;;;;;;1.43;1.10;;;;;;;-141.59;100.00;61776.25;5085560;28;20201;-87
2022/11/09 02:31:26;;;;;;;1.30;1.00;;;;;;;-141.59;100.00;61776.25;5085603;28;20284;-86
2022/11/09 02:33:54;;;;;;;1.60;1.10;;;;;;;-141.59;100.00;61776.25;5086268;28;20286;-85
2022/11/09 02:36:25;;;;;;;1.20;1.10;;;;;;;-141.59;100.00;61776.25;5074342;28;20233;-86
2022/11/09 02:38:54;;;;;;;1.50;0.83;;;;;;;-141.59;100.00;61776.25;5086566;28;20197;-86
2022/11/09 02:41:24;;;;;;;2.20;1.00;;;;;;;-141.59;100.00;61776.25;5084283;28;20216;-86
2022/11/09 02:43:53;;;;;;;1.13;1.00;;;;;;;-141.59;100.00;61776.25;5089160;28;20284;-85
2022/11/09 02:46:25;;;;;;;0.80;0.80;;;;;;;-141.59;100.00;61776.25;5083971;28;20213;-86
2022/11/09 02:48:53;;;;;;;1.10;1.00;;;;;;;-141.59;100.00;61776.25;5086119;28;20201;-86
2022/11/09 02:51:20;;;;;;;1.77;1.00;;;;;;;-141.59;100.00;61776.25;5085716;28;20203;-86
2022/11/09 02:53:49;;;;;;;1.73;1.23;;;;;;;-141.59;100.00;61776.25;5087638;28;20201;-86
2022/11/09 02:56:17;;;;;;;1.93;0.90;;;;;;;-141.59;100.00;61776.25;5085653;28;20408;-86
2022/11/09 02:58:44;;;;;;;1.20;1.10;;;;;;;-141.59;100.00;61776.25;5076020;28;20284;-86
2022/11/09 03:01:11;;;;;;;1.53;1.00;;;;;;;-141.59;100.00;61776.25;5085368;28;20196;-87
2022/11/09 03:03:39;;;;;;;1.23;1.10;;;;;;;-141.59;100.00;61776.25;5083891;28;20193;-87
2022/11/09 03:06:06;;;;;;;1.50;1.00;;;;;;;-141.59;100.00;61776.25;5079300;28;20200;-86
2022/11/09 03:08:36;;;;;;;1.13;1.00;;;;;;;-141.59;100.00;61776.25;5083844;28;20246;-85
2022/11/09 03:11:06;;;;;;;1.53;0.90;;;;;;;-141.59;100.00;61776.25;5086679;28;20205;-86
2022/11/09 03:13:33;;;;;;;2.07;1.00;;;;;;;-141.59;100.00;61776.25;5082720;28;20189;-86
2022/11/09 03:16:06;;;;;;;1.10;1.00;;;;;;;-141.59;100.00;61776.25;5084656;28;20201;-85
2022/11/09 03:18:36;;;;;;;2.30;1.10;;;;;;;-141.59;100.00;61776.25;5083960;28;20229;-86
2022/11/09 03:21:14;;;;;;;1.10;1.00;;;;;;;-141.59;100.00;61776.25;5085702;28;20209;-86
2022/11/09 03:23:44;;;;;;;1.60;1.10;;;;;;;-141.59;100.00;61776.25;5073967;28;20226;-86
2022/11/09 03:26:14;;;;;;;1.10;1.00;;;;;;;-141.59;100.00;61776.25;5081088;28;20201;-86
2022/11/09 03:28:42;;;;;;;1.47;1.00;;;;;;;-141.59;100.00;61776.25;5087071;28;20205;-86
2022/11/09 03:31:10;;;;;;;1.63;1.00;;;;;;;-141.59;100.00;61776.25;5087301;28;20193;-86
2022/11/09 03:33:37;;;;;;;1.17;1.07;;;;;;;-141.59;100.00;61776.25;5091205;28;20220;-86
2022/11/09 03:36:07;;;;;;;1.20;1.10;;;;;;;-141.59;100.00;61776.25;5083276;28;20255;-86
2022/11/09 03:38:35;;;;;;;2.90;1.00;;;;;;;-141.59;100.00;61776.25;5082085;28;20291;-86
2022/11/09 03:41:03;;;;;;;1.10;1.00;;;;;;;-141.59;100.00;61776.25;5079170;28;20219;-87
2022/11/09 03:43:33;;;;;;;1.93;1.20;;;;;;;-141.59;100.00;61776.25;5099984;28;20204;-86
2022/11/09 03:46:00;;;;;;;2.27;1.10;;;;;;;-141.59;100.00;61776.25;5094413;28;20204;-86
2022/11/09 03:48:28;;;;;;;1.87;1.10;;;;;;;-141.59;100.00;61776.25;5079321;28;20270;-86
2022/11/09 03:50:55;;;;;;;1.10;1.00;;;;;;;-141.59;100.00;61776.25;5083741;28;20206;-86
2022/11/09 03:53:24;;;;;;;1.70;1.13;;;;;;;-141.59;100.00;61776.25;5083593;28;20263;-87
2022/11/09 03:55:51;;;;;;;1.43;1.00;;;;;;;-141.59;100.00;61776.25;5079814;28;20208;-87
2022/11/09 03:58:18;;;;;;;1.10;1.00;;;;;;;-141.59;100.00;61776.25;5083837;28;20201;-86
2022/11/09 04:00:47;;;;;;;1.10;1.00;;;;;;;-141.59;100.00;61776.25;5088645;28;20208;-87
2022/11/09 04:03:14;;;;;;;1.33;1.00;;;;;;;-141.59;100.00;61776.25;5091347;28;20274;-86
2022/11/09 04:05:41;;;;;;;2.43;1.10;;;;;;;-141.59;100.00;61776.25;5084233;28;20205;-86
2022/11/09 04:08:09;;;;;;;1.13;1.03;;;;;;;-141.59;100.00;61776.25;5084727;28;20225;-85
2022/11/09 04:10:36;;;;;;;2.10;1.00;;;;;;;-141.59;100.00;61776.25;5084317;28;20198;-87
2022/11/09 04:13:03;;;;;;;1.33;1.07;;;;;;;-141.59;100.00;61776.25;5079371;28;20213;-86
2022/11/09 04:15:32;;;;;;;1.20;1.10;;;;;;;-141.59;100.00;61776.25;5080842;28;20201;-86
2022/11/09 04:18:02;;;;;;;1.17;0.93;;;;;;;-141.59;100.00;61776.25;5079450;28;20262;-86
2022/11/09 04:20:30;;;;;;;1.20;1.00;;;;;;;-141.59;100.00;61776.25;5083778;28;20228;-86
2022/11/09 04:22:59;;;;;;;1.30;1.20;;;;;;;-141.59;100.00;61776.25;5084595;28;20220;-86
2022/11/09 04:25:27;;;;;;;1.10;1.00;;;;;;;-141.59;100.00;61776.25;5083161;28;20216;-85
2022/11/09 04:27:55;;;;;;;1.70;1.10;;;;;;;-141.59;100.00;61776.25;5074971;28;20225;-86
2022/11/09 04:30:23;;;;;;;1.40;1.20;;;;;;;-141.59;100.00;61776.25;5081885;28;20209;-86
2022/11/09 04:32:51;;;;;;;1.50;1.10;;;;;;;-141.59;100.00;61776.25;5084291;28;20212;-87
2022/11/09 04:35:19;;;;;;;1.80;1.20;;;;;;;-141.59;100.00;61776.25;5082758;28;20209;-87
2022/11/09 04:37:56;;;;;;;1.77;1.50;;;;;;;-141.59;100.00;61776.25;5086196;28;20204;-86
2022/11/09 04:40:24;;;;;;;2.30;1.10;;;;;;;-141.59;100.00;61776.25;5080835;28;20203;-86
2022/11/09 04:42:51;;;;;;;1.30;1.10;;;;;;;-141.59;100.00;61776.25;5079521;28;20215;-87
2022/11/09 04:45:19;;;;;;;1.30;1.20;;;;;;;-141.59;100.00;61776.25;5084270;28;20209;-86
2022/11/09 04:47:45;;;;;;;1.40;1.13;;;;;;;-141.59;100.00;61776.25;5075788;28;20216;-86
2022/11/09 04:50:13;;;;;;;1.87;1.30;;;;;;;-141.59;100.00;61776.25;5082459;28;20205;-86
2022/11/09 04:52:41;;;;;;;1.40;1.30;;;;;;;-141.59;100.00;61776.25;5086975;28;20224;-85
2022/11/09 04:55:09;;;;;;;1.30;1.20;;;;;;;-141.59;100.00;61776.25;5078939;28;20205;-86
2022/11/09 04:57:36;;;;;;;4.80;1.60;;;;;;;-141.59;100.00;61776.25;5085907;28;20205;-86
2022/11/09 05:00:05;;;;;;;1.10;1.00;;;;;;;-141.59;100.00;61776.25;5084253;28;20204;-87
2022/11/09 05:02:32;;;;;;;1.67;1.10;;;;;;;-141.59;100.00;61776.25;5081747;28;20265;-85
2022/11/09 05:05:00;;;;;;;1.20;1.10;;;;;;;-141.59;100.00;61776.25;5086796;28;20228;-86
2022/11/09 05:07:27;;;;;;;1.30;1.20;;;;;;;-141.59;100.00;61776.25;5084132;28;20224;-86
2022/11/09 05:09:58;;;;;;;1.30;1.20;;;;;;;-141.59;100.00;61776.25;5084825;28;20204;-86
2022/11/09 05:12:25;;;;;;;1.70;1.43;;;;;;;-141.59;100.00;61776.25;5082055;28;20232;-86
2022/11/09 05:14:52;;;;;;;1.73;1.20;;;;;;;-141.59;100.00;61776.25;5084346;28;20209;-86
2022/11/09 05:17:19;;;;;;;1.47;1.20;;;;;;;-141.59;100.00;61776.25;5084475;28;20292;-86
2022/11/09 05:19:46;;;;;;;1.90;1.20;;;;;;;-141.59;100.00;61776.25;5088689;28;20224;-83
2022/11/09 05:24:55;;;;;;;1.30;1.07;;;;;;;-141.59;100.00;61776.25;5052272;28;20207;-86
2022/11/09 05:27:22;;;;;;;1.23;1.13;;;;;;;-141.59;100.00;61776.25;5080471;28;20220;-87
2022/11/09 05:29:50;;;;;;;1.10;1.00;;;;;;;-141.59;100.00;61776.25;5079452;28;20209;-87
2022/11/09 05:32:17;;;;;;;1.30;1.10;;;;;;;-141.59;100.00;61776.25;5079422;28;20252;-86
2022/11/09 05:34:44;;;;;;;1.30;1.20;;;;;;;-141.59;100.00;61776.25;5082636;28;20193;-86
2022/11/09 05:37:12;;;;;;;4.97;1.30;;;;;;;-141.59;100.00;61776.25;5080075;28;20237;-86
2022/11/09 05:39:39;;;;;;;1.93;1.20;;;;;;;-141.59;100.00;61776.25;5082497;28;20225;-86
2022/11/09 05:42:09;;;;;;;1.93;1.40;;;;;;;-141.59;100.00;61776.25;5087645;28;20203;-86
2022/11/09 05:44:36;;;;;;;1.43;1.33;;;;;;;-141.59;100.00;61776.25;5089456;28;20219;-85
2022/11/09 05:47:08;;;;;;;2.40;1.20;;;;;;;-141.59;100.00;61776.25;5085822;28;20212;-86
2022/11/09 05:49:35;;;;;;;1.30;1.10;;;;;;;-141.59;100.00;61776.25;5095787;28;20209;-86
2022/11/09 05:52:02;;;;;;;3.17;1.50;;;;;;;-141.59;100.00;61776.25;5085116;28;20201;-86
2022/11/09 05:54:29;;;;;;;1.53;1.40;;;;;;;-141.59;100.00;61776.25;5087464;28;20197;-86
2022/11/09 05:56:56;;;;;;;1.93;1.30;;;;;;;-141.59;100.00;61776.25;5087211;28;20220;-86
2022/11/09 05:59:24;;;;;;;6.03;1.67;;;;;;;-141.59;100.00;61776.25;5081522;28;20319;-87
2022/11/09 06:01:51;;;;;;;1.63;1.50;;;;;;;-141.59;100.00;61776.25;5091952;28;20193;-86
2022/11/09 06:04:18;;;;;;;2.03;1.33;;;;;;;-141.59;100.00;61776.25;5086499;28;20205;-86
2022/11/09 06:06:45;;;;;;;1.60;1.50;;;;;;;-141.59;100.00;61776.25;5079270;28;20193;-87
2022/11/09 06:09:12;;;;;;;2.87;1.40;;;;;;;-141.59;100.00;61776.25;5083942;28;20248;-85
2022/11/09 06:11:39;;;;;;;2.20;1.80;;;;;;;-141.59;100.00;61776.25;5091385;28;20201;-85
2022/11/09 06:14:07;;;;;;;2.97;1.30;;;;;;;-141.59;100.00;61776.25;5091910;28;20193;-85
2022/11/09 06:16:36;;;;;;;2.33;1.40;;;;;;;-141.59;100.00;61776.25;5089643;28;20201;-86
2022/11/09 06:19:03;;;;;;;1.23;1.13;;;;;;;-141.59;100.00;61776.25;5085902;28;20222;-85
2022/11/09 06:21:30;;;;;;;2.23;1.30;;;;;;;-141.59;100.00;61776.25;5083512;28;20222;-87
2022/11/09 06:23:57;;;;;;;3.67;1.20;;;;;;;-141.59;100.00;61776.25;5087923;28;20220;-85
2022/11/09 06:26:24;;;;;;;2.77;1.60;;;;;;;-141.59;100.00;61776.25;5083616;28;20196;-85
2022/11/09 06:28:51;;;;;;;1.63;1.53;;;;;;;-141.59;100.00;61776.25;5091272;28;20274;-87
2022/11/09 06:31:19;;;;;;;4.93;1.90;;;;;;;-141.59;100.00;61776.25;5087049;28;20215;-86
2022/11/09 06:33:48;;;;;;;2.47;1.33;;;;;;;-141.59;100.00;61776.25;5085389;28;20197;-86
2022/11/09 06:36:15;;;;;;;2.47;1.77;;;;;;;-141.59;100.00;61776.25;5084938;28;20229;-86
2022/11/09 06:38:43;;;;;;;1.73;1.63;;;;;;;-141.59;100.00;61776.25;5077297;28;20220;-86
2022/11/09 06:41:10;;;;;;;2.87;1.57;;;;;;;-141.59;100.00;61776.25;5083801;28;20201;-86
2022/11/09 06:43:37;;;;;;;2.73;1.63;;;;;;;-141.59;100.00;61776.25;5089710;28;20213;-85
2022/11/09 06:46:05;;;;;;;4.73;1.80;;;;;;;-141.59;100.00;61776.25;5095490;28;20197;-86
2022/11/09 06:48:32;;;;;;;2.23;1.60;;;;;;;-141.59;100.00;61776.25;5086969;28;20216;-85
2022/11/09 06:51:02;;;;;;;11.30;2.10;;;;;;;-141.59;100.00;61776.25;5088269;28;20203;-86
2022/11/09 06:53:30;;;;;;;3.83;2.10;;;;;;;-141.59;100.00;61776.25;5086146;28;20223;-85
2022/11/09 06:55:58;;;;;;;4.37;1.90;;;;;;;-141.59;100.00;61776.25;5083875;28;20205;-85
2022/11/09 06:58:25;;;;;;;2.30;1.80;;;;;;;-141.59;100.00;61776.25;5076600;28;20201;-85
2022/11/09 07:00:52;;;;;;;7.70;6.90;;;;;;;-141.59;100.00;61776.25;5085271;28;20196;-85
2022/11/09 07:03:21;;;;;;;4.97;4.20;;;;;;;-141.59;100.00;61776.25;5082736;28;20214;-85
2022/11/09 07:05:48;;;;;;;1.53;1.43;;;;;;;-141.59;100.00;61776.25;5083211;28;20193;-85
2022/11/09 07:08:19;;;;;;;3.93;2.37;;;;;;;-141.59;100.00;61776.25;5088628;28;20212;-86
2022/11/09 07:10:46;;;;;;;8.33;4.77;;;;;;;-141.59;100.00;61776.25;5084421;28;20208;-85
2022/11/09 07:13:13;;;;;;;7.43;3.73;;;;;;;-141.59;100.00;61776.25;5084874;28;20204;-85
2022/11/09 07:15:40;;;;;;;3.83;2.13;;;;;;;-141.59;100.00;61776.25;5080350;28;20217;-86
2022/11/09 07:18:12;;;;;;;4.60;2.33;;;;;;;-141.59;100.00;61776.25;5086069;28;20197;-86
2022/11/09 07:20:39;;;;;;;5.43;2.23;;;;;;;-141.59;100.00;61776.25;5086065;28;20193;-86
2022/11/09 07:23:08;;;;;;;2.43;2.03;;;;;;;-141.59;100.00;61776.25;5084873;28;20204;-85
2022/11/09 07:25:36;;;;;;;2.70;1.80;;;;;;;-141.59;100.00;61776.25;5086313;28;20216;-86
2022/11/09 07:28:04;;;;;;;2.83;2.03;;;;;;;-141.59;100.00;61776.25;5083815;28;20228;-86
2022/11/09 07:30:32;;;;;;;3.00;1.87;;;;;;;-141.59;100.00;61776.25;5078150;28;20215;-85
2022/11/09 07:32:59;;;;;;;2.30;1.80;;;;;;;-141.59;100.00;61776.25;5075790;28;20197;-85
2022/11/09 07:35:27;;;;;;;6.17;2.20;;;;;;;-141.59;100.00;61776.25;5077025;28;20237;-86
2022/11/09 07:37:54;;;;;;;6.30;2.13;;;;;;;-141.59;100.00;61776.25;5085746;28;20281;-86
2022/11/09 07:40:21;;;;;;;33.13;3.93;;;;;;;-141.59;100.00;61776.25;5082741;28;20228;-86
2022/11/09 07:42:49;;;;;;;12.20;3.03;;;;;;;-141.59;100.00;61776.25;5083696;28;20205;-86
2022/11/09 07:45:19;;;;;;;3.73;1.67;;;;;;;-141.59;100.00;61776.25;5083016;28;20201;-86
2022/11/09 07:47:46;;;;;;;1.80;1.50;;;;;;;-141.59;100.00;61776.25;5078733;28;20201;-86
2022/11/09 07:50:14;;;;;;;3.13;1.47;;;;;;;-141.59;100.00;61776.25;5090430;28;20202;-86
2022/11/09 07:52:41;;;;;;;3.00;1.63;;;;;;;-141.59;100.00;61776.25;5102494;28;20197;-87
2022/11/09 07:55:11;;;;;;;3.57;1.70;;;;;;;-141.59;100.00;61776.25;5083902;28;20862;-86
2022/11/09 07:57:39;;;;;;;11.77;2.30;;;;;;;-141.59;100.00;61776.25;5086377;28;20216;-86
2022/11/09 08:00:09;;;;;;;8.47;2.20;;;;;;;-141.59;100.00;61776.25;5086238;28;20265;-86
2022/11/09 08:02:38;;;;;;;2.03;1.73;;;;;;;-141.59;100.00;61776.25;5088077;28;20204;-86
2022/11/09 08:05:08;;;;;;;4.07;1.60;;;;;;;-141.59;100.00;61776.25;5086668;28;20197;-86
2022/11/09 08:07:36;;;;;;;6.70;1.73;;;;;;;-141.59;100.00;61776.25;5084152;28;20199;-86
2022/11/09 08:10:03;;;;;;;4.07;1.87;;;;;;;-141.59;100.00;61776.25;5082802;28;20229;-86
2022/11/09 08:12:30;;;;;;;1.90;1.70;;;;;;;-141.59;100.00;61776.25;5083078;28;20204;-86
2022/11/09 08:14:57;;;;;;;3.50;1.60;;;;;;;-141.59;100.00;61776.25;5083508;28;20209;-86
2022/11/09 08:17:26;;;;;;;3.30;1.60;;;;;;;-141.59;100.00;61776.25;5086298;28;20254;-85
2022/11/09 08:19:53;;;;;;;2.47;1.50;;;;;;;-141.59;100.00;61776.25;5080263;28;20213;-87
2022/11/09 08:22:20;;;;;;;2.17;1.63;;;;;;;-141.59;100.00;61776.25;5083549;28;20200;-86
2022/11/09 08:24:47;;;;;;;3.27;1.60;;;;;;;-141.59;100.00;61776.25;5080032;28;20209;-86
2022/11/09 08:27:14;;;;;;;2.77;1.57;;;;;;;-141.59;100.00;61776.25;5083531;28;20226;-86
2022/11/09 08:29:42;;;;;;;2.30;1.50;;;;;;;-141.59;100.00;61776.25;5081618;28;20223;-85
2022/11/09 08:32:09;;;;;;;2.70;1.70;;;;;;;-141.59;100.00;61776.25;5084075;28;20201;-85
2022/11/09 08:34:38;;;;;;;2.93;2.33;;;;;;;-141.59;100.00;61776.25;5081712;28;20288;-86
2022/11/09 08:37:05;;;;;;;1.93;1.60;;;;;;;-141.59;100.00;61776.25;5080169;28;20440;-86
2022/11/09 08:39:32;;;;;;;13.80;2.10;;;;;;;-141.59;100.00;61776.25;5083494;28;20196;-86
2022/11/09 08:42:00;;;;;;;4.17;2.27;;;;;;;-141.59;100.00;61776.25;5082365;28;20220;-86
2022/11/09 08:44:27;;;;;;;2.60;2.00;;;;;;;-141.59;100.00;61776.25;5077997;28;20291;-85
2022/11/09 08:46:54;;;;;;;3.17;2.47;;;;;;;-141.59;100.00;61776.25;5079894;28;20236;-86
2022/11/09 08:49:21;;;;;;;2.90;2.03;;;;;;;-141.59;100.00;61776.25;5081729;28;20220;-86
2022/11/09 08:51:50;;;;;;;6.77;2.30;;;;;;;-141.59;100.00;61776.25;5082480;28;20201;-86
2022/11/09 08:54:17;;;;;;;3.07;2.00;;;;;;;-141.59;100.00;61776.25;5079639;28;20219;-87
2022/11/09 08:56:45;;;;;;;2.57;2.20;;;;;;;-141.59;100.00;61776.25;5087721;28;20201;-85
2022/11/09 08:59:12;;;;;;;4.23;2.50;;;;;;;-141.59;100.00;61776.25;5084806;28;20205;-86
2022/11/09 09:01:41;;;;;;;4.67;2.50;;;;;;;-141.59;100.00;61776.25;5088296;28;20205;-86
2022/11/09 09:04:11;;;;;;;3.20;2.53;;;;;;;-141.59;100.00;61776.25;5075488;28;20216;-86
2022/11/09 09:06:38;;;;;;;4.00;2.33;;;;;;;-141.59;100.00;61776.25;5083047;28;20197;-85
2022/11/09 09:09:07;;;;;;;4.00;2.20;;;;;;;-141.59;100.00;61776.25;5074921;28;20217;-86
2022/11/09 09:11:34;;;;;;;3.60;2.43;;;;;;;-141.59;100.00;61776.25;5081401;28;20201;-86
2022/11/09 09:14:01;;;;;;;8.00;4.37;;;;;;;-141.59;100.00;61776.25;5093307;28;20195;-87
2022/11/09 09:16:29;;;;;;;4.60;3.40;;;;;;;-141.59;100.00;61776.25;5085205;28;20209;-87
2022/11/09 09:18:56;;;;;;;4.30;2.40;;;;;;;-141.59;100.00;61776.25;5080692;28;20284;-87
2022/11/09 09:21:23;;;;;;;6.60;2.80;;;;;;;-141.59;100.00;61776.25;5080465;28;20246;-86
2022/11/09 09:23:50;;;;;;;5.13;2.90;;;;;;;-141.59;100.00;61776.25;5089073;28;20197;-86
2022/11/09 09:26:20;;;;;;;3.87;2.50;;;;;;;-141.59;100.00;61776.25;5089521;28;20231;-86
2022/11/09 09:28:47;;;;;;;5.63;2.40;;;;;;;-141.59;100.00;61776.25;5084137;28;20212;-86
2022/11/09 09:31:14;;;;;;;5.60;2.47;;;;;;;-141.59;100.00;61776.25;5087112;28;20204;-86
2022/11/09 09:33:44;;;;;;;7.77;2.50;;;;;;;-141.59;100.00;61776.25;5081712;28;20200;-86
2022/11/09 09:36:17;;;;;;;3.27;2.33;;;;;;;-141.59;100.00;61776.25;5076294;28;20268;-88
2022/11/09 09:38:44;;;;;;;7.13;2.67;;;;;;;-141.59;100.00;61776.25;5087786;28;20201;-86
2022/11/09 09:41:22;;;;;;;5.73;2.27;;;;;;;-141.59;100.00;61776.25;5086745;28;20196;-86
2022/11/09 09:43:56;;;;;;;8.50;3.47;;;;;;;-141.59;100.00;61776.25;5086094;28;20200;-88
2022/11/09 09:46:27;;;;;;;5.27;2.87;;;;;;;-141.59;100.00;61776.25;5087761;28;20205;-86
2022/11/09 09:48:58;;;;;;;9.90;3.30;;;;;;;-141.59;100.00;61776.25;5086670;28;20220;-85
2022/11/09 09:51:33;;;;;;;9.27;2.97;;;;;;;-141.59;100.00;61776.25;5088781;28;20220;-87
2022/11/09 09:54:12;;;;;;;4.20;3.07;;;;;;;-141.59;100.00;61776.25;5090428;28;20296;-87
2022/11/09 09:56:44;;;;;;;7.43;3.00;;;;;;;-141.59;100.00;61776.25;5091077;28;20197;-87
2022/11/09 09:59:21;;;;;;;4.27;3.00;;;;;;;-141.59;100.00;61776.25;5088279;28;20255;-87
2022/11/09 10:01:49;;;;;;;6.17;3.10;;;;;;;-141.59;100.00;61776.25;5081933;28;20300;-87
2022/11/09 10:04:19;;;;;;;4.17;3.00;;;;;;;-141.59;100.00;61776.25;5080539;28;20201;-86
2022/11/09 10:07:03;;;;;;;5.53;3.10;;;;;;;-141.59;100.00;61776.25;5085762;28;20242;-86
2022/11/09 10:09:57;;;;;;;5.50;2.70;;;;;;;-141.59;100.00;61776.25;5088025;28;20224;-85
2022/11/09 10:12:39;;;;;;;5.90;2.50;;;;;;;-141.59;100.00;61776.25;5086036;28;20231;-86
2022/11/09 10:15:15;;;;;;;5.53;2.80;;;;;;;-141.59;100.00;61776.25;5085607;28;20205;-86
2022/11/09 10:17:55;;;;;;;4.90;2.70;;;;;;;-141.59;100.00;61776.25;5097848;28;20202;-84
2022/11/09 10:20:37;;;;;;;2.60;2.30;;;;;;;-141.59;100.00;61776.25;5083775;28;20266;-88
2022/11/09 10:23:24;;;;;;;4.53;2.50;;;;;;;-141.59;100.00;61776.25;5083880;28;20208;-84
2022/11/09 10:26:00;;;;;;;6.63;3.10;;;;;;;-141.59;100.00;61776.25;5082140;28;20234;-83
2022/11/09 10:28:32;;;;;;;3.33;2.60;;;;;;;-141.59;100.00;61776.25;5079542;28;20216;-84
2022/11/09 10:31:02;;;;;;;6.10;2.90;;;;;;;-141.59;100.00;61776.25;5101018;28;20201;-83
2022/11/09 10:33:29;;;;;;;6.23;2.90;;;;;;;-141.59;100.00;61776.25;5074913;28;20205;-83
2022/11/09 10:36:09;;;;;;;8.20;3.30;;;;;;;-141.59;100.00;61776.25;5077342;28;20232;-84
2022/11/09 10:38:43;;;;;;;4.80;2.63;;;;;;;-141.59;100.00;61776.25;5083351;28;20207;-86
2022/11/09 10:41:33;;;;;;;3.83;2.47;;;;;;;-141.59;100.00;61776.25;5093624;28;20216;-84
2022/11/09 10:44:20;;;;;;;3.30;2.30;;;;;;;-141.59;100.00;61776.25;5091254;28;20239;-83
2022/11/09 10:47:12;;;;;;;3.03;2.40;;;;;;;-141.59;100.00;61776.25;5091276;28;20235;-85
2022/11/09 10:50:09;;;;;;;5.00;2.83;;;;;;;-141.59;100.00;61776.25;5079696;28;20223;-90
2022/11/09 10:53:08;;;;;;;4.80;2.57;;;;;;;-141.59;100.00;61776.25;5086187;28;20215;-87
2022/11/09 10:55:56;;;;;;;4.23;3.37;;;;;;;-141.59;100.00;61776.25;5079363;28;20277;-85
2022/11/09 10:58:47;;;;;;;19.30;10.17;;;;;;;-141.59;100.00;61776.25;5081319;28;20236;-83
2022/11/09 11:01:38;;;;;;;15.97;8.53;;;;;;;-141.59;100.00;61776.25;5077495;28;20246;-81
2022/11/09 11:04:26;;;;;;;7.17;2.93;;;;;;;-141.59;100.00;61776.25;5078181;28;20252;-83
2022/11/09 11:07:19;;;;;;;5.63;3.33;;;;;;;-141.59;100.00;61776.25;5082567;28;20310;-83
2022/11/09 11:10:17;;;;;;;4.87;2.77;;;;;;;-141.59;100.00;61776.25;5083297;28;20278;-83
2022/11/09 11:13:29;;;;;;;4.37;2.80;;;;;;;-141.59;100.00;61776.25;5080637;28;20230;-81
2022/11/09 11:16:23;;;;;;;4.50;2.97;;;;;;;-141.59;100.00;61776.25;5080484;28;20254;-80
2022/11/09 11:19:28;;;;;;;10.13;2.97;;;;;;;-141.59;100.00;61776.25;5077056;28;20319;-81
2022/11/09 11:22:21;;;;;;;5.13;3.33;;;;;;;-141.59;100.00;61776.25;5080223;28;20248;-81
2022/11/09 11:25:19;;;;;;;3.83;2.90;;;;;;;-141.59;100.00;61776.25;5083800;28;20224;-81
2022/11/09 11:28:17;;;;;;;5.40;3.30;;;;;;;-141.59;100.00;61776.25;5085790;28;20274;-81